Terminal Aerodrome Forecast
Issued by NWS

Home | Current Version | Previous Version | Text Only | Print | Product List | Glossary On
Versions: 1 2 3 4 5 6 7 8 9 10 11 12 13 14 15 16 17 18 19 20 21 22 23 24
000
FTUS44 KLIX 161023 AAA
TAFMCB
TAF AMD
KMCB 161023Z 1610/1706 18001KT 1/2SM FG VV002
     FM161200 VRB03KT 6SM BR OVC010
     FM161300 VRB03KT P6SM BKN003
     FM161800 VRB03KT P6SM BKN050
     FM170000 18005KT P6SM FEW250=

USA.gov is the U.S. government's official web portal to all federal, state and local government web resources and services.